sensor_id;sensor_type;location;lat;lon;timestamp;P1;P2;P0
76238;PMS7003;65043;48.392;-4.472;2023-05-14T00:02:12;34.00;31.50;20.00
76238;PMS7003;65043;48.392;-4.472;2023-05-14T00:04:37;36.75;31.00;20.25
76238;PMS7003;65043;48.392;-4.472;2023-05-14T00:07:03;36.75;31.50;20.00
76238;PMS7003;65043;48.392;-4.472;2023-05-14T00:09:28;40.00;32.00;21.00
76238;PMS7003;65043;48.392;-4.472;2023-05-14T00:11:54;34.25;32.00;20.00
76238;PMS7003;65043;48.392;-4.472;2023-05-14T00:14:20;41.00;30.75;20.75
76238;PMS7003;65043;48.392;-4.472;2023-05-14T00:16:46;32.75;29.25;21.25
76238;PMS7003;65043;48.392;-4.472;2023-05-14T00:19:11;26.25;23.25;14.25
76238;PMS7003;65043;48.392;-4.472;2023-05-14T00:21:36;40.75;32.00;20.25
76238;PMS7003;65043;48.392;-4.472;2023-05-14T00:24:02;37.75;33.00;22.00
76238;PMS7003;65043;48.392;-4.472;2023-05-14T00:26:27;36.00;30.50;20.00
76238;PMS7003;65043;48.392;-4.472;2023-05-14T00:28:53;35.25;32.50;21.50
76238;PMS7003;65043;48.392;-4.472;2023-05-14T00:31:18;41.00;35.00;22.00
76238;PMS7003;65043;48.392;-4.472;2023-05-14T00:33:44;37.00;31.00;20.00
76238;PMS7003;65043;48.392;-4.472;2023-05-14T00:36:09;37.50;31.00;20.25
76238;PMS7003;65043;48.392;-4.472;2023-05-14T00:38:34;33.25;30.50;20.00
76238;PMS7003;65043;48.392;-4.472;2023-05-14T00:41:00;38.25;32.50;22.00
76238;PMS7003;65043;48.392;-4.472;2023-05-14T00:43:25;33.75;31.00;20.00
76238;PMS7003;65043;48.392;-4.472;2023-05-14T00:45:51;38.25;33.00;20.75
76238;PMS7003;65043;48.392;-4.472;2023-05-14T00:48:21;43.75;34.00;21.50
76238;PMS7003;65043;48.392;-4.472;2023-05-14T00:50:47;43.00;32.50;20.50
76238;PMS7003;65043;48.392;-4.472;2023-05-14T00:53:13;36.50;32.00;21.00
76238;PMS7003;65043;48.392;-4.472;2023-05-14T00:55:39;40.25;32.50;22.00
76238;PMS7003;65043;48.392;-4.472;2023-05-14T00:58:06;34.50;30.00;20.00
76238;PMS7003;65043;48.392;-4.472;2023-05-14T01:00:35;36.00;31.50;22.00
76238;PMS7003;65043;48.392;-4.472;2023-05-14T01:03:02;38.50;32.25;20.25
76238;PMS7003;65043;48.392;-4.472;2023-05-14T01:05:28;38.75;33.50;21.00
76238;PMS7003;65043;48.392;-4.472;2023-05-14T01:08:16;35.75;32.25;20.00
76238;PMS7003;65043;48.392;-4.472;2023-05-14T01:10:55;39.25;31.25;20.50
76238;PMS7003;65043;48.392;-4.472;2023-05-14T01:13:47;40.25;33.00;20.00
76238;PMS7003;65043;48.392;-4.472;2023-05-14T01:16:22;34.75;29.75;19.75
76238;PMS7003;65043;48.392;-4.472;2023-05-14T01:18:51;37.75;33.00;21.00
76238;PMS7003;65043;48.392;-4.472;2023-05-14T01:23:58;45.50;32.75;21.00
76238;PMS7003;65043;48.392;-4.472;2023-05-14T01:26:24;35.50;30.75;21.00
76238;PMS7003;65043;48.392;-4.472;2023-05-14T01:28:49;42.50;34.50;22.00
76238;PMS7003;65043;48.392;-4.472;2023-05-14T01:31:17;32.25;29.75;20.25
76238;PMS7003;65043;48.392;-4.472;2023-05-14T01:33:49;40.25;34.75;21.75
76238;PMS7003;65043;48.392;-4.472;2023-05-14T01:36:16;34.25;30.25;19.00
76238;PMS7003;65043;48.392;-4.472;2023-05-14T01:38:42;38.50;30.25;21.00
76238;PMS7003;65043;48.392;-4.472;2023-05-14T01:41:10;43.00;35.25;22.00
76238;PMS7003;65043;48.392;-4.472;2023-05-14T01:43:38;40.75;32.25;20.00
76238;PMS7003;65043;48.392;-4.472;2023-05-14T01:46:03;39.75;33.25;20.50
76238;PMS7003;65043;48.392;-4.472;2023-05-14T01:48:29;41.00;33.25;22.25
76238;PMS7003;65043;48.392;-4.472;2023-05-14T01:50:54;43.75;33.75;22.00
76238;PMS7003;65043;48.392;-4.472;2023-05-14T01:53:20;42.00;33.25;22.00
76238;PMS7003;65043;48.392;-4.472;2023-05-14T01:55:45;44.00;36.00;23.50
76238;PMS7003;65043;48.392;-4.472;2023-05-14T01:58:10;46.00;38.50;24.00
76238;PMS7003;65043;48.392;-4.472;2023-05-14T02:00:36;48.00;38.25;24.25
76238;PMS7003;65043;48.392;-4.472;2023-05-14T02:03:02;50.00;40.00;24.00
76238;PMS7003;65043;48.392;-4.472;2023-05-14T02:05:27;52.75;39.50;24.00
76238;PMS7003;65043;48.392;-4.472;2023-05-14T02:07:53;50.50;41.00;24.00
76238;PMS7003;65043;48.392;-4.472;2023-05-14T02:10:18;49.75;39.25;24.25
76238;PMS7003;65043;48.392;-4.472;2023-05-14T02:12:44;48.00;39.25;24.00
76238;PMS7003;65043;48.392;-4.472;2023-05-14T02:15:09;51.50;41.75;25.00
76238;PMS7003;65043;48.392;-4.472;2023-05-14T02:17:35;51.25;40.25;24.25
76238;PMS7003;65043;48.392;-4.472;2023-05-14T02:20:00;48.25;37.75;25.75
76238;PMS7003;65043;48.392;-4.472;2023-05-14T02:22:26;51.00;40.50;24.25
76238;PMS7003;65043;48.392;-4.472;2023-05-14T02:24:51;50.00;40.50;25.50
76238;PMS7003;65043;48.392;-4.472;2023-05-14T02:27:16;51.50;40.50;24.00
76238;PMS7003;65043;48.392;-4.472;2023-05-14T02:29:42;52.00;41.75;25.25
76238;PMS7003;65043;48.392;-4.472;2023-05-14T02:32:08;46.25;38.75;22.00
76238;PMS7003;65043;48.392;-4.472;2023-05-14T02:34:34;54.00;42.50;23.75
76238;PMS7003;65043;48.392;-4.472;2023-05-14T02:36:59;50.50;39.75;24.50
76238;PMS7003;65043;48.392;-4.472;2023-05-14T02:39:25;45.25;37.50;24.00
76238;PMS7003;65043;48.392;-4.472;2023-05-14T02:41:50;52.00;39.75;24.00
76238;PMS7003;65043;48.392;-4.472;2023-05-14T02:44:15;52.25;40.00;25.50
76238;PMS7003;65043;48.392;-4.472;2023-05-14T02:46:41;51.25;41.50;24.25
76238;PMS7003;65043;48.392;-4.472;2023-05-14T02:49:07;52.00;40.50;25.75
76238;PMS7003;65043;48.392;-4.472;2023-05-14T02:51:32;48.75;40.00;24.75
76238;PMS7003;65043;48.392;-4.472;2023-05-14T02:53:57;48.75;38.50;24.00
76238;PMS7003;65043;48.392;-4.472;2023-05-14T02:56:23;50.50;38.75;24.00
76238;PMS7003;65043;48.392;-4.472;2023-05-14T02:58:48;49.50;39.75;23.75
76238;PMS7003;65043;48.392;-4.472;2023-05-14T03:01:14;52.00;41.50;23.50
76238;PMS7003;65043;48.392;-4.472;2023-05-14T03:03:39;52.25;39.00;23.75
76238;PMS7003;65043;48.392;-4.472;2023-05-14T03:06:04;51.50;40.00;24.00
76238;PMS7003;65043;48.392;-4.472;2023-05-14T03:08:30;45.75;36.75;23.25
76238;PMS7003;65043;48.392;-4.472;2023-05-14T03:10:55;49.50;39.50;23.75
76238;PMS7003;65043;48.392;-4.472;2023-05-14T03:13:21;49.75;40.50;25.00
76238;PMS7003;65043;48.392;-4.472;2023-05-14T03:15:46;48.25;39.00;23.75
76238;PMS7003;65043;48.392;-4.472;2023-05-14T03:18:12;49.75;40.00;24.25
76238;PMS7003;65043;48.392;-4.472;2023-05-14T03:20:38;50.75;40.25;24.00
76238;PMS7003;65043;48.392;-4.472;2023-05-14T03:23:03;49.50;40.75;26.00
76238;PMS7003;65043;48.392;-4.472;2023-05-14T03:25:29;48.25;37.50;24.25
76238;PMS7003;65043;48.392;-4.472;2023-05-14T03:27:54;55.75;43.75;26.00
76238;PMS7003;65043;48.392;-4.472;2023-05-14T03:30:20;54.75;44.25;26.50
76238;PMS7003;65043;48.392;-4.472;2023-05-14T03:32:45;56.75;45.75;26.50
76238;PMS7003;65043;48.392;-4.472;2023-05-14T03:35:10;51.50;44.00;27.25
76238;PMS7003;65043;48.392;-4.472;2023-05-14T03:37:36;53.25;41.00;27.00
76238;PMS7003;65043;48.392;-4.472;2023-05-14T03:40:01;53.50;42.75;25.50
76238;PMS7003;65043;48.392;-4.472;2023-05-14T03:42:27;52.50;41.75;26.25
76238;PMS7003;65043;48.392;-4.472;2023-05-14T03:44:52;53.50;43.75;27.25
76238;PMS7003;65043;48.392;-4.472;2023-05-14T03:47:18;52.50;43.00;27.00
76238;PMS7003;65043;48.392;-4.472;2023-05-14T03:49:43;56.00;44.50;28.00
76238;PMS7003;65043;48.392;-4.472;2023-05-14T03:52:08;49.50;40.00;25.75
76238;PMS7003;65043;48.392;-4.472;2023-05-14T03:54:34;59.25;45.00;27.25
76238;PMS7003;65043;48.392;-4.472;2023-05-14T03:56:59;53.75;42.50;26.75
76238;PMS7003;65043;48.392;-4.472;2023-05-14T03:59:25;50.25;42.75;27.25
76238;PMS7003;65043;48.392;-4.472;2023-05-14T04:01:51;53.00;41.75;27.00
76238;PMS7003;65043;48.392;-4.472;2023-05-14T04:04:16;53.50;42.50;27.25
76238;PMS7003;65043;48.392;-4.472;2023-05-14T04:06:42;57.50;43.50;27.25
76238;PMS7003;65043;48.392;-4.472;2023-05-14T04:09:07;51.75;41.75;26.00
76238;PMS7003;65043;48.392;-4.472;2023-05-14T04:11:34;52.50;40.00;27.25
76238;PMS7003;65043;48.392;-4.472;2023-05-14T04:14:00;51.00;41.75;25.75
76238;PMS7003;65043;48.392;-4.472;2023-05-14T04:16:26;47.25;40.25;24.75
76238;PMS7003;65043;48.392;-4.472;2023-05-14T04:18:51;49.00;38.25;23.25
76238;PMS7003;65043;48.392;-4.472;2023-05-14T04:21:16;48.00;40.25;24.25
76238;PMS7003;65043;48.392;-4.472;2023-05-14T04:23:42;44.75;38.25;24.00
76238;PMS7003;65043;48.392;-4.472;2023-05-14T04:26:07;51.50;42.50;23.25
76238;PMS7003;65043;48.392;-4.472;2023-05-14T04:28:32;46.25;37.25;23.00
76238;PMS7003;65043;48.392;-4.472;2023-05-14T04:30:58;48.25;38.50;24.00
76238;PMS7003;65043;48.392;-4.472;2023-05-14T04:33:23;49.50;39.25;23.75
76238;PMS7003;65043;48.392;-4.472;2023-05-14T04:35:49;48.25;40.50;23.25
76238;PMS7003;65043;48.392;-4.472;2023-05-14T04:38:14;49.75;40.00;22.25
76238;PMS7003;65043;48.392;-4.472;2023-05-14T04:40:40;51.75;40.25;22.00
76238;PMS7003;65043;48.392;-4.472;2023-05-14T04:43:05;50.25;39.00;22.25
76238;PMS7003;65043;48.392;-4.472;2023-05-14T04:45:32;46.00;37.00;21.75
76238;PMS7003;65043;48.392;-4.472;2023-05-14T04:47:57;44.75;36.00;22.00
76238;PMS7003;65043;48.392;-4.472;2023-05-14T04:50:23;42.00;35.50;22.25
76238;PMS7003;65043;48.392;-4.472;2023-05-14T04:52:48;47.50;37.75;22.75
76238;PMS7003;65043;48.392;-4.472;2023-05-14T04:55:13;46.75;36.50;22.00
76238;PMS7003;65043;48.392;-4.472;2023-05-14T04:57:39;48.25;38.75;23.00
76238;PMS7003;65043;48.392;-4.472;2023-05-14T05:00:04;43.25;36.50;20.25
76238;PMS7003;65043;48.392;-4.472;2023-05-14T05:02:31;49.00;37.00;23.00
76238;PMS7003;65043;48.392;-4.472;2023-05-14T05:04:58;48.75;36.25;21.00
76238;PMS7003;65043;48.392;-4.472;2023-05-14T05:07:24;44.75;32.75;20.50
76238;PMS7003;65043;48.392;-4.472;2023-05-14T05:09:49;46.00;35.75;22.50
76238;PMS7003;65043;48.392;-4.472;2023-05-14T05:12:15;51.75;40.00;23.00
76238;PMS7003;65043;48.392;-4.472;2023-05-14T05:14:40;49.25;39.00;22.00
76238;PMS7003;65043;48.392;-4.472;2023-05-14T05:17:05;49.50;37.50;22.75
76238;PMS7003;65043;48.392;-4.472;2023-05-14T05:19:31;43.50;36.00;22.00
76238;PMS7003;65043;48.392;-4.472;2023-05-14T05:21:56;45.00;38.25;20.75
76238;PMS7003;65043;48.392;-4.472;2023-05-14T05:24:21;51.75;39.50;23.00
76238;PMS7003;65043;48.392;-4.472;2023-05-14T05:26:47;46.50;38.25;21.75
76238;PMS7003;65043;48.392;-4.472;2023-05-14T05:29:14;49.25;38.50;21.75
76238;PMS7003;65043;48.392;-4.472;2023-05-14T05:31:40;46.25;37.25;21.50
76238;PMS7003;65043;48.392;-4.472;2023-05-14T05:34:05;46.50;36.50;22.00
76238;PMS7003;65043;48.392;-4.472;2023-05-14T05:36:31;46.75;38.00;22.00
76238;PMS7003;65043;48.392;-4.472;2023-05-14T05:38:56;43.00;36.25;22.00
76238;PMS7003;65043;48.392;-4.472;2023-05-14T05:41:21;43.25;37.00;20.25
76238;PMS7003;65043;48.392;-4.472;2023-05-14T05:43:47;50.50;37.50;21.50
76238;PMS7003;65043;48.392;-4.472;2023-05-14T05:46:12;40.00;36.00;21.50
76238;PMS7003;65043;48.392;-4.472;2023-05-14T05:48:38;46.50;36.00;22.00
76238;PMS7003;65043;48.392;-4.472;2023-05-14T05:51:04;43.75;35.00;22.00
76238;PMS7003;65043;48.392;-4.472;2023-05-14T05:53:29;38.50;31.25;20.50
76238;PMS7003;65043;48.392;-4.472;2023-05-14T05:55:54;46.00;32.75;21.00
76238;PMS7003;65043;48.392;-4.472;2023-05-14T05:58:20;41.00;32.50;20.00
76238;PMS7003;65043;48.392;-4.472;2023-05-14T06:00:45;24.75;20.25;9.00
76238;PMS7003;65043;48.392;-4.472;2023-05-14T06:03:11;41.00;32.50;20.00
76238;PMS7003;65043;48.392;-4.472;2023-05-14T06:05:37;36.50;32.00;20.00
76238;PMS7003;65043;48.392;-4.472;2023-05-14T06:08:02;44.75;32.00;20.00
76238;PMS7003;65043;48.392;-4.472;2023-05-14T06:10:28;44.25;35.75;20.00
76238;PMS7003;65043;48.392;-4.472;2023-05-14T06:12:53;39.00;31.50;19.00
76238;PMS7003;65043;48.392;-4.472;2023-05-14T06:15:21;34.50;31.50;19.75
76238;PMS7003;65043;48.392;-4.472;2023-05-14T06:17:46;31.50;29.00;20.75
76238;PMS7003;65043;48.392;-4.472;2023-05-14T06:20:12;36.75;34.00;20.00
76238;PMS7003;65043;48.392;-4.472;2023-05-14T06:22:37;34.00;31.50;20.00
76238;PMS7003;65043;48.392;-4.472;2023-05-14T06:25:03;36.00;30.25;19.50
76238;PMS7003;65043;48.392;-4.472;2023-05-14T06:27:29;38.00;31.25;21.25
76238;PMS7003;65043;48.392;-4.472;2023-05-14T06:29:54;40.75;32.00;20.00
76238;PMS7003;65043;48.392;-4.472;2023-05-14T06:32:20;36.75;32.50;20.00
76238;PMS7003;65043;48.392;-4.472;2023-05-14T06:34:45;39.25;34.00;20.00
76238;PMS7003;65043;48.392;-4.472;2023-05-14T06:37:11;39.50;32.25;21.75
76238;PMS7003;65043;48.392;-4.472;2023-05-14T06:39:36;36.25;31.25;19.75
76238;PMS7003;65043;48.392;-4.472;2023-05-14T06:42:02;39.25;32.25;19.50
76238;PMS7003;65043;48.392;-4.472;2023-05-14T06:44:28;42.50;32.50;19.75
76238;PMS7003;65043;48.392;-4.472;2023-05-14T06:46:53;40.25;32.50;20.00
76238;PMS7003;65043;48.392;-4.472;2023-05-14T06:49:18;35.00;30.25;17.25
76238;PMS7003;65043;48.392;-4.472;2023-05-14T06:51:45;40.00;32.00;21.25
76238;PMS7003;65043;48.392;-4.472;2023-05-14T06:54:10;52.75;43.00;25.00
76238;PMS7003;65043;48.392;-4.472;2023-05-14T06:56:36;68.50;53.00;33.00
76238;PMS7003;65043;48.392;-4.472;2023-05-14T06:59:02;57.75;45.00;28.00
76238;PMS7003;65043;48.392;-4.472;2023-05-14T07:01:27;63.75;47.50;28.00
76238;PMS7003;65043;48.392;-4.472;2023-05-14T07:03:52;73.50;58.25;35.00
76238;PMS7003;65043;48.392;-4.472;2023-05-14T07:06:18;58.00;44.50;29.00
76238;PMS7003;65043;48.392;-4.472;2023-05-14T07:08:44;42.00;33.00;21.25
76238;PMS7003;65043;48.392;-4.472;2023-05-14T07:11:12;45.50;35.50;21.00
76238;PMS7003;65043;48.392;-4.472;2023-05-14T07:13:38;40.25;33.00;20.00
76238;PMS7003;65043;48.392;-4.472;2023-05-14T07:16:05;40.00;33.50;20.25
76238;PMS7003;65043;48.392;-4.472;2023-05-14T07:18:31;47.25;33.00;21.00
76238;PMS7003;65043;48.392;-4.472;2023-05-14T07:20:56;37.25;32.50;19.75
76238;PMS7003;65043;48.392;-4.472;2023-05-14T07:23:22;43.50;32.75;20.00
76238;PMS7003;65043;48.392;-4.472;2023-05-14T07:25:47;39.75;33.75;21.00
76238;PMS7003;65043;48.392;-4.472;2023-05-14T07:28:12;40.50;30.25;17.00
76238;PMS7003;65043;48.392;-4.472;2023-05-14T07:30:38;43.50;33.75;19.75
76238;PMS7003;65043;48.392;-4.472;2023-05-14T07:33:03;43.00;32.75;20.00
76238;PMS7003;65043;48.392;-4.472;2023-05-14T07:35:29;41.00;34.25;21.25
76238;PMS7003;65043;48.392;-4.472;2023-05-14T07:37:54;41.75;33.25;20.00
76238;PMS7003;65043;48.392;-4.472;2023-05-14T07:40:20;38.25;32.50;20.25
76238;PMS7003;65043;48.392;-4.472;2023-05-14T07:42:46;47.00;35.00;21.25
76238;PMS7003;65043;48.392;-4.472;2023-05-14T07:45:11;45.50;34.25;21.00
76238;PMS7003;65043;48.392;-4.472;2023-05-14T07:47:37;42.75;33.00;22.00
76238;PMS7003;65043;48.392;-4.472;2023-05-14T07:50:03;43.00;35.25;20.00
76238;PMS7003;65043;48.392;-4.472;2023-05-14T07:52:29;43.75;33.25;19.75
76238;PMS7003;65043;48.392;-4.472;2023-05-14T07:54:54;41.75;33.25;20.25
76238;PMS7003;65043;48.392;-4.472;2023-05-14T07:57:20;40.25;33.75;21.50
76238;PMS7003;65043;48.392;-4.472;2023-05-14T07:59:46;41.75;34.00;21.75
76238;PMS7003;65043;48.392;-4.472;2023-05-14T08:02:12;41.00;32.75;21.00
76238;PMS7003;65043;48.392;-4.472;2023-05-14T08:04:39;42.50;33.00;22.00
76238;PMS7003;65043;48.392;-4.472;2023-05-14T08:07:05;40.50;33.50;20.50
76238;PMS7003;65043;48.392;-4.472;2023-05-14T08:09:32;41.50;33.00;21.75
76238;PMS7003;65043;48.392;-4.472;2023-05-14T08:11:57;45.75;36.00;23.00
76238;PMS7003;65043;48.392;-4.472;2023-05-14T08:14:23;40.50;35.25;22.00
76238;PMS7003;65043;48.392;-4.472;2023-05-14T08:16:48;44.50;37.75;22.00
76238;PMS7003;65043;48.392;-4.472;2023-05-14T08:19:14;41.25;34.75;21.50
76238;PMS7003;65043;48.392;-4.472;2023-05-14T08:21:40;44.50;35.00;20.75
76238;PMS7003;65043;48.392;-4.472;2023-05-14T08:24:05;37.25;33.00;21.00
76238;PMS7003;65043;48.392;-4.472;2023-05-14T08:26:31;41.75;34.25;22.75
76238;PMS7003;65043;48.392;-4.472;2023-05-14T08:28:56;43.00;35.25;22.00
76238;PMS7003;65043;48.392;-4.472;2023-05-14T08:31:22;45.00;35.75;23.00
76238;PMS7003;65043;48.392;-4.472;2023-05-14T08:33:47;41.00;32.75;20.50
76238;PMS7003;65043;48.392;-4.472;2023-05-14T08:36:13;38.75;32.00;21.00
76238;PMS7003;65043;48.392;-4.472;2023-05-14T08:38:38;37.75;31.50;21.50
76238;PMS7003;65043;48.392;-4.472;2023-05-14T08:41:04;34.50;32.25;21.00
76238;PMS7003;65043;48.392;-4.472;2023-05-14T08:43:43;44.25;36.00;23.00
76238;PMS7003;65043;48.392;-4.472;2023-05-14T08:46:15;44.75;34.75;21.75
76238;PMS7003;65043;48.392;-4.472;2023-05-14T08:48:41;166.50;146.50;76.50
76238;PMS7003;65043;48.392;-4.472;2023-05-14T08:51:12;255.50;220.00;113.00
76238;PMS7003;65043;48.392;-4.472;2023-05-14T08:53:37;210.50;183.25;97.50
76238;PMS7003;65043;48.392;-4.472;2023-05-14T08:56:04;153.50;137.00;74.75
76238;PMS7003;65043;48.392;-4.472;2023-05-14T08:58:31;169.75;143.75;75.75
76238;PMS7003;65043;48.392;-4.472;2023-05-14T09:00:56;87.50;79.25;46.00
76238;PMS7003;65043;48.392;-4.472;2023-05-14T09:03:22;87.50;78.50;47.75
76238;PMS7003;65043;48.392;-4.472;2023-05-14T09:05:48;82.50;74.25;41.50
76238;PMS7003;65043;48.392;-4.472;2023-05-14T09:08:15;64.25;49.50;31.00
76238;PMS7003;65043;48.392;-4.472;2023-05-14T09:10:41;62.50;49.25;31.00
76238;PMS7003;65043;48.392;-4.472;2023-05-14T09:13:07;56.50;45.50;28.25
76238;PMS7003;65043;48.392;-4.472;2023-05-14T09:15:34;54.00;42.00;25.50
76238;PMS7003;65043;48.392;-4.472;2023-05-14T09:18:03;55.75;42.00;27.00
76238;PMS7003;65043;48.392;-4.472;2023-05-14T09:20:29;49.25;40.25;24.50
76238;PMS7003;65043;48.392;-4.472;2023-05-14T09:22:56;48.25;40.75;25.75
76238;PMS7003;65043;48.392;-4.472;2023-05-14T09:25:29;49.75;39.75;24.25
76238;PMS7003;65043;48.392;-4.472;2023-05-14T09:27:56;47.00;38.50;24.50
76238;PMS7003;65043;48.392;-4.472;2023-05-14T09:30:22;44.25;36.00;22.00
76238;PMS7003;65043;48.392;-4.472;2023-05-14T09:32:51;44.75;37.50;25.25
76238;PMS7003;65043;48.392;-4.472;2023-05-14T09:35:19;46.75;38.50;25.00
76238;PMS7003;65043;48.392;-4.472;2023-05-14T09:37:50;46.75;39.25;23.75
76238;PMS7003;65043;48.392;-4.472;2023-05-14T09:40:17;48.25;38.75;24.50
76238;PMS7003;65043;48.392;-4.472;2023-05-14T09:42:44;54.00;40.00;26.50
76238;PMS7003;65043;48.392;-4.472;2023-05-14T09:45:10;51.75;39.25;24.75
76238;PMS7003;65043;48.392;-4.472;2023-05-14T09:47:37;44.75;37.75;21.25
76238;PMS7003;65043;48.392;-4.472;2023-05-14T09:50:03;52.25;42.50;25.00
76238;PMS7003;65043;48.392;-4.472;2023-05-14T09:52:29;45.00;39.75;25.25
76238;PMS7003;65043;48.392;-4.472;2023-05-14T09:54:55;45.75;39.50;25.25
76238;PMS7003;65043;48.392;-4.472;2023-05-14T09:57:21;47.00;39.00;25.25
76238;PMS7003;65043;48.392;-4.472;2023-05-14T09:59:47;46.25;34.25;23.00
76238;PMS7003;65043;48.392;-4.472;2023-05-14T10:02:23;44.25;39.50;23.75
76238;PMS7003;65043;48.392;-4.472;2023-05-14T10:04:50;43.50;36.50;23.50
76238;PMS7003;65043;48.392;-4.472;2023-05-14T10:07:18;44.50;36.50;22.75
76238;PMS7003;65043;48.392;-4.472;2023-05-14T10:09:47;43.50;38.25;24.25
76238;PMS7003;65043;48.392;-4.472;2023-05-14T10:12:12;47.75;39.25;25.25
76238;PMS7003;65043;48.392;-4.472;2023-05-14T10:14:46;40.75;36.50;22.75
76238;PMS7003;65043;48.392;-4.472;2023-05-14T10:17:17;43.75;37.25;24.50
76238;PMS7003;65043;48.392;-4.472;2023-05-14T10:19:55;43.00;36.25;22.75
76238;PMS7003;65043;48.392;-4.472;2023-05-14T10:22:21;36.50;36.25;23.00
76238;PMS7003;65043;48.392;-4.472;2023-05-14T10:24:48;36.75;34.50;23.00
76238;PMS7003;65043;48.392;-4.472;2023-05-14T10:27:16;41.25;32.25;22.00
76238;PMS7003;65043;48.392;-4.472;2023-05-14T10:29:46;46.00;36.25;23.25
76238;PMS7003;65043;48.392;-4.472;2023-05-14T10:32:17;40.00;34.25;21.50
76238;PMS7003;65043;48.392;-4.472;2023-05-14T10:34:46;43.25;38.25;24.75
76238;PMS7003;65043;48.392;-4.472;2023-05-14T10:37:24;43.75;37.75;25.00
76238;PMS7003;65043;48.392;-4.472;2023-05-14T10:42:21;40.75;33.50;21.75
76238;PMS7003;65043;48.392;-4.472;2023-05-14T10:47:14;37.75;32.75;21.75
76238;PMS7003;65043;48.392;-4.472;2023-05-14T10:49:43;36.25;33.00;20.75
76238;PMS7003;65043;48.392;-4.472;2023-05-14T10:52:13;42.50;36.25;20.50
76238;PMS7003;65043;48.392;-4.472;2023-05-14T10:54:45;41.75;38.00;21.75
76238;PMS7003;65043;48.392;-4.472;2023-05-14T10:57:18;49.75;40.25;24.50
76238;PMS7003;65043;48.392;-4.472;2023-05-14T10:59:45;45.00;38.00;23.00
76238;PMS7003;65043;48.392;-4.472;2023-05-14T11:02:24;51.25;41.50;24.50
76238;PMS7003;65043;48.392;-4.472;2023-05-14T11:04:56;53.50;41.25;24.75
76238;PMS7003;65043;48.392;-4.472;2023-05-14T11:07:34;45.50;38.00;25.00
76238;PMS7003;65043;48.392;-4.472;2023-05-14T11:10:05;49.25;42.00;25.75
76238;PMS7003;65043;48.392;-4.472;2023-05-14T11:12:32;44.25;36.50;21.50
76238;PMS7003;65043;48.392;-4.472;2023-05-14T11:15:00;45.50;37.25;25.00
76238;PMS7003;65043;48.392;-4.472;2023-05-14T11:17:28;44.75;39.00;24.50
76238;PMS7003;65043;48.392;-4.472;2023-05-14T11:19:55;53.25;42.25;25.25
76238;PMS7003;65043;48.392;-4.472;2023-05-14T11:22:21;42.50;38.50;25.00
76238;PMS7003;65043;48.392;-4.472;2023-05-14T11:24:47;70.00;52.25;32.00
76238;PMS7003;65043;48.392;-4.472;2023-05-14T11:27:13;52.25;39.25;26.25
76238;PMS7003;65043;48.392;-4.472;2023-05-14T11:29:42;46.00;38.00;24.25
76238;PMS7003;65043;48.392;-4.472;2023-05-14T11:32:10;52.50;42.00;25.50
76238;PMS7003;65043;48.392;-4.472;2023-05-14T11:34:36;45.50;36.50;25.25
76238;PMS7003;65043;48.392;-4.472;2023-05-14T11:37:02;46.75;39.75;26.25
76238;PMS7003;65043;48.392;-4.472;2023-05-14T11:39:29;51.75;37.75;22.75
76238;PMS7003;65043;48.392;-4.472;2023-05-14T11:41:56;84.25;64.00;38.25
76238;PMS7003;65043;48.392;-4.472;2023-05-14T11:44:22;72.25;57.50;34.25
76238;PMS7003;65043;48.392;-4.472;2023-05-14T11:46:58;72.50;54.75;34.75
76238;PMS7003;65043;48.392;-4.472;2023-05-14T11:49:26;76.75;58.00;37.25
76238;PMS7003;65043;48.392;-4.472;2023-05-14T11:51:59;76.00;58.25;36.25
76238;PMS7003;65043;48.392;-4.472;2023-05-14T11:54:27;55.00;44.50;28.00
76238;PMS7003;65043;48.392;-4.472;2023-05-14T11:56:54;49.25;41.00;26.50
76238;PMS7003;65043;48.392;-4.472;2023-05-14T11:59:24;52.75;39.50;26.25
76238;PMS7003;65043;48.392;-4.472;2023-05-14T12:01:51;46.75;41.25;24.50
76238;PMS7003;65043;48.392;-4.472;2023-05-14T12:04:17;38.75;32.00;21.00
76238;PMS7003;65043;48.392;-4.472;2023-05-14T12:06:46;34.50;28.50;16.50
76238;PMS7003;65043;48.392;-4.472;2023-05-14T12:09:16;27.75;26.50;17.25
76238;PMS7003;65043;48.392;-4.472;2023-05-14T12:11:45;27.00;24.25;17.25
76238;PMS7003;65043;48.392;-4.472;2023-05-14T12:14:22;27.75;24.25;15.00
76238;PMS7003;65043;48.392;-4.472;2023-05-14T12:16:49;26.25;21.00;15.00
76238;PMS7003;65043;48.392;-4.472;2023-05-14T12:19:16;28.25;23.75;14.75
76238;PMS7003;65043;48.392;-4.472;2023-05-14T12:21:44;24.75;21.50;13.25
76238;PMS7003;65043;48.392;-4.472;2023-05-14T12:24:12;23.00;17.50;12.50
76238;PMS7003;65043;48.392;-4.472;2023-05-14T12:26:43;24.00;22.00;14.25
76238;PMS7003;65043;48.392;-4.472;2023-05-14T12:29:11;19.50;18.25;13.00
76238;PMS7003;65043;48.392;-4.472;2023-05-14T12:31:37;20.75;16.00;12.50
76238;PMS7003;65043;48.392;-4.472;2023-05-14T12:34:02;15.50;14.50;10.00
76238;PMS7003;65043;48.392;-4.472;2023-05-14T12:36:28;18.25;16.00;12.25
76238;PMS7003;65043;48.392;-4.472;2023-05-14T12:38:59;15.75;15.25;10.75
76238;PMS7003;65043;48.392;-4.472;2023-05-14T12:41:27;16.25;14.25;9.25
76238;PMS7003;65043;48.392;-4.472;2023-05-14T12:43:52;16.00;14.25;8.75
76238;PMS7003;65043;48.392;-4.472;2023-05-14T12:46:18;15.00;15.00;11.00
76238;PMS7003;65043;48.392;-4.472;2023-05-14T12:48:43;10.00;10.00;7.50
76238;PMS7003;65043;48.392;-4.472;2023-05-14T12:51:09;9.25;7.75;6.50
76238;PMS7003;65043;48.392;-4.472;2023-05-14T12:53:34;7.25;7.25;5.50
76238;PMS7003;65043;48.392;-4.472;2023-05-14T12:56:00;9.25;9.25;7.00
76238;PMS7003;65043;48.392;-4.472;2023-05-14T12:58:25;9.75;9.50;7.00
76238;PMS7003;65043;48.392;-4.472;2023-05-14T13:00:51;9.25;8.75;6.00
76238;PMS7003;65043;48.392;-4.472;2023-05-14T13:03:16;10.00;9.50;6.25
76238;PMS7003;65043;48.392;-4.472;2023-05-14T13:05:41;9.75;9.25;7.00
76238;PMS7003;65043;48.392;-4.472;2023-05-14T13:08:08;11.25;10.00;7.25
76238;PMS7003;65043;48.392;-4.472;2023-05-14T13:10:33;8.00;8.00;6.25
76238;PMS7003;65043;48.392;-4.472;2023-05-14T13:12:59;10.00;10.00;7.00
76238;PMS7003;65043;48.392;-4.472;2023-05-14T13:15:26;9.25;9.25;6.50
76238;PMS7003;65043;48.392;-4.472;2023-05-14T13:17:52;11.00;8.50;5.25
76238;PMS7003;65043;48.392;-4.472;2023-05-14T13:20:17;8.25;8.25;7.00
76238;PMS7003;65043;48.392;-4.472;2023-05-14T13:22:43;8.25;7.50;6.75
76238;PMS7003;65043;48.392;-4.472;2023-05-14T13:25:08;9.75;9.25;6.75
76238;PMS7003;65043;48.392;-4.472;2023-05-14T13:27:34;9.75;8.50;6.50
76238;PMS7003;65043;48.392;-4.472;2023-05-14T13:30:00;9.00;9.00;7.00
76238;PMS7003;65043;48.392;-4.472;2023-05-14T13:32:29;9.00;9.00;6.50
76238;PMS7003;65043;48.392;-4.472;2023-05-14T13:34:55;10.00;8.50;5.25
76238;PMS7003;65043;48.392;-4.472;2023-05-14T13:37:20;6.75;6.25;4.25
76238;PMS7003;65043;48.392;-4.472;2023-05-14T13:39:45;9.50;8.75;6.50
76238;PMS7003;65043;48.392;-4.472;2023-05-14T13:42:11;9.00;8.50;6.00